Time,TemperatureF,DewpointF,PressureIn,WindDirection,WindDirectionDegrees,WindSpeedMPH,WindSpeedGustMPH,Humidity,HourlyPrecipIn,Conditions,Clouds,dailyrainin,SoftwareType,DateUTC
2013-09-16 00:00:00,60.0,-99.9,29.83,SSW,200,14.0,14.0,-999,-99.99,,,-99.99,,2013-09-16 07:00:00,
2013-09-16 00:22:00,60.0,-99.9,29.83,SSW,200,14.0,14.0,-999,-99.99,,,-99.99,,2013-09-16 07:22:00,
2013-09-16 00:32:00,60.0,-99.9,29.83,SSW,200,14.0,14.0,-999,-99.99,,,-99.99,,2013-09-16 07:32:00,
2013-09-16 00:43:00,60.0,-99.9,29.83,SSW,200,14.0,14.0,-999,-99.99,,,-99.99,,2013-09-16 07:43:00,
2013-09-16 00:52:00,60.0,-99.9,29.83,SSW,200,14.0,14.0,-999,-99.99,,,-99.99,,2013-09-16 07:52:00,
2013-09-16 01:00:00,59.0,-99.9,29.84,SW,230,11.0,13.0,-999,-99.99,,,-99.99,,2013-09-16 08:00:00,
2013-09-16 01:22:00,59.0,-99.9,29.84,SW,230,11.0,13.0,-999,-99.99,,,-99.99,,2013-09-16 08:22:00,
2013-09-16 01:32:00,59.0,-99.9,29.84,SW,230,11.0,13.0,-999,-99.99,,,-99.99,,2013-09-16 08:32:00,
2013-09-16 01:42:00,59.0,-99.9,29.84,SW,230,11.0,13.0,-999,-99.99,,,-99.99,,2013-09-16 08:42:00,
2013-09-16 01:52:00,59.0,-99.9,29.84,SW,230,11.0,13.0,-999,-99.99,,,-99.99,,2013-09-16 08:52:00,
2013-09-16 02:00:00,60.0,-99.9,29.85,SW,220,13.0,15.0,-999,-99.99,,,-99.99,,2013-09-16 09:00:00,
2013-09-16 02:22:00,60.0,-99.9,29.85,SW,220,13.0,15.0,-999,-99.99,,,-99.99,,2013-09-16 09:22:00,
2013-09-16 02:34:00,60.0,-99.9,29.85,SW,220,13.0,15.0,-999,-99.99,,,-99.99,,2013-09-16 09:34:00,
2013-09-16 02:43:00,60.0,-99.9,29.85,SW,220,13.0,15.0,-999,-99.99,,,-99.99,,2013-09-16 09:43:00,
2013-09-16 02:53:00,60.0,-99.9,29.85,SW,220,13.0,15.0,-999,-99.99,,,-99.99,,2013-09-16 09:53:00,
2013-09-16 03:00:00,60.0,-99.9,29.85,SSW,200,9.0,10.0,-999,-99.99,,,-99.99,,2013-09-16 10:00:00,
2013-09-16 03:23:00,60.0,-99.9,29.85,SSW,200,9.0,10.0,-999,-99.99,,,-99.99,,2013-09-16 10:23:00,
2013-09-16 03:33:00,60.0,-99.9,29.85,SSW,200,9.0,10.0,-999,-99.99,,,-99.99,,2013-09-16 10:33:00,
2013-09-16 03:42:00,60.0,-99.9,29.85,SSW,200,9.0,10.0,-999,-99.99,,,-99.99,,2013-09-16 10:42:00,
2013-09-16 03:53:00,60.0,-99.9,29.85,SSW,200,9.0,10.0,-999,-99.99,,,-99.99,,2013-09-16 10:53:00,
2013-09-16 04:00:00,60.0,-99.9,29.85,SSW,200,16.0,17.0,-999,-99.99,,,-99.99,,2013-09-16 11:00:00,
2013-09-16 04:22:00,60.0,-99.9,29.85,SSW,200,16.0,17.0,-999,-99.99,,,-99.99,,2013-09-16 11:22:00,
2013-09-16 04:33:00,60.0,-99.9,29.85,SSW,200,16.0,17.0,-999,-99.99,,,-99.99,,2013-09-16 11:33:00,
2013-09-16 04:42:00,60.0,-99.9,29.85,SSW,200,16.0,17.0,-999,-99.99,,,-99.99,,2013-09-16 11:42:00,
2013-09-16 04:52:00,60.0,-99.9,29.85,SSW,200,16.0,17.0,-999,-99.99,,,-99.99,,2013-09-16 11:52:00,
2013-09-16 05:00:00,59.0,-99.9,29.86,South,190,13.0,14.0,-999,-99.99,,,-99.99,,2013-09-16 12:00:00,
2013-09-16 05:22:00,59.0,-99.9,29.86,South,190,13.0,14.0,-999,-99.99,,,-99.99,,2013-09-16 12:22:00,
2013-09-16 05:32:00,59.0,-99.9,29.86,South,190,13.0,14.0,-999,-99.99,,,-99.99,,2013-09-16 12:32:00,
2013-09-16 05:42:00,59.0,-99.9,29.86,South,190,13.0,14.0,-999,-99.99,,,-99.99,,2013-09-16 12:42:00,
2013-09-16 05:52:00,59.0,-99.9,29.86,South,190,13.0,14.0,-999,-99.99,,,-99.99,,2013-09-16 12:52:00,
2013-09-16 06:00:00,59.0,-99.9,29.87,SSE,160,8.0,9.0,-999,-99.99,,,-99.99,,2013-09-16 13:00:00,
2013-09-16 06:22:00,59.0,-99.9,29.87,SSE,160,8.0,9.0,-999,-99.99,,,-99.99,,2013-09-16 13:22:00,
2013-09-16 06:32:00,59.0,-99.9,29.87,SSE,160,8.0,9.0,-999,-99.99,,,-99.99,,2013-09-16 13:32:00,
2013-09-16 06:42:00,59.0,-99.9,29.87,SSE,160,8.0,9.0,-999,-99.99,,,-99.99,,2013-09-16 13:42:00,
2013-09-16 06:53:00,59.0,-99.9,29.87,SSE,160,8.0,9.0,-999,-99.99,,,-99.99,,2013-09-16 13:53:00,
2013-09-16 07:00:00,59.0,-99.9,29.88,NW,320,6.0,7.0,-999,-99.99,,,-99.99,,2013-09-16 14:00:00,
2013-09-16 07:22:00,59.0,-99.9,29.88,NW,320,6.0,7.0,-999,-99.99,,,-99.99,,2013-09-16 14:22:00,
2013-09-16 07:32:00,59.0,-99.9,29.88,NW,320,6.0,7.0,-999,-99.99,,,-99.99,,2013-09-16 14:32:00,
2013-09-16 07:42:00,59.0,-99.9,29.88,NW,320,6.0,7.0,-999,-99.99,,,-99.99,,2013-09-16 14:42:00,
2013-09-16 07:52:00,59.0,-99.9,29.88,NW,320,6.0,7.0,-999,-99.99,,,-99.99,,2013-09-16 14:52:00,
2013-09-16 08:00:00,59.0,-99.9,29.89,WNW,300,5.0,6.0,-999,-99.99,,,-99.99,,2013-09-16 15:00:00,
2013-09-16 08:22:00,59.0,-99.9,29.89,WNW,300,5.0,6.0,-999,-99.99,,,-99.99,,2013-09-16 15:22:00,
2013-09-16 08:33:00,59.0,-99.9,29.89,WNW,300,5.0,6.0,-999,-99.99,,,-99.99,,2013-09-16 15:33:00,
2013-09-16 08:43:00,59.0,-99.9,29.89,WNW,300,5.0,6.0,-999,-99.99,,,-99.99,,2013-09-16 15:43:00,
2013-09-16 08:53:00,59.0,-99.9,29.89,WNW,300,5.0,6.0,-999,-99.99,,,-99.99,,2013-09-16 15:53:00,
2013-09-16 09:00:00,59.0,-99.9,29.91,NNE,30,3.0,5.0,-999,-99.99,,,-99.99,,2013-09-16 16:00:00,
2013-09-16 09:23:00,59.0,-99.9,29.91,NNE,30,3.0,5.0,-999,-99.99,,,-99.99,,2013-09-16 16:23:00,
2013-09-16 09:33:00,59.0,-99.9,29.91,NNE,30,3.0,5.0,-999,-99.99,,,-99.99,,2013-09-16 16:33:00,
2013-09-16 09:43:00,59.0,-99.9,29.91,NNE,30,3.0,5.0,-999,-99.99,,,-99.99,,2013-09-16 16:43:00,
2013-09-16 09:52:00,59.0,-99.9,29.91,NNE,30,3.0,5.0,-999,-99.99,,,-99.99,,2013-09-16 16:52:00,
2013-09-16 10:00:00,61.0,-99.9,29.92,North,0,0.0,0.0,-999,-99.99,,,-99.99,,2013-09-16 17:00:00,
2013-09-16 10:23:00,61.0,-99.9,29.92,North,0,0.0,0.0,-999,-99.99,,,-99.99,,2013-09-16 17:23:00,
2013-09-16 10:33:00,61.0,-99.9,29.92,North,0,0.0,0.0,-999,-99.99,,,-99.99,,2013-09-16 17:33:00,
2013-09-16 10:43:00,61.0,-99.9,29.92,North,0,0.0,0.0,-999,-99.99,,,-99.99,,2013-09-16 17:43:00,
2013-09-16 10:53:00,61.0,-99.9,29.92,North,0,0.0,0.0,-999,-99.99,,,-99.99,,2013-09-16 17:53:00,
2013-09-16 11:00:00,59.0,-99.9,29.93,NW,320,2.0,3.0,-999,-99.99,,,-99.99,,2013-09-16 18:00:00,
2013-09-16 11:22:00,59.0,-99.9,29.93,NW,320,2.0,3.0,-999,-99.99,,,-99.99,,2013-09-16 18:22:00,
2013-09-16 11:32:00,59.0,-99.9,29.93,NW,320,2.0,3.0,-999,-99.99,,,-99.99,,2013-09-16 18:32:00,
2013-09-16 11:42:00,59.0,-99.9,29.93,NW,320,2.0,3.0,-999,-99.99,,,-99.99,,2013-09-16 18:42:00,
2013-09-16 11:52:00,59.0,-99.9,29.93,NW,320,2.0,3.0,-999,-99.99,,,-99.99,,2013-09-16 18:52:00,
2013-09-16 12:00:00,60.0,-99.9,29.95,NW,320,2.0,2.0,-999,-99.99,,,-99.99,,2013-09-16 19:00:00,
2013-09-16 12:22:00,60.0,-99.9,29.95,NW,320,2.0,2.0,-999,-99.99,,,-99.99,,2013-09-16 19:22:00,
2013-09-16 12:32:00,60.0,-99.9,29.95,NW,320,2.0,2.0,-999,-99.99,,,-99.99,,2013-09-16 19:32:00,
2013-09-16 12:42:00,60.0,-99.9,29.95,NW,320,2.0,2.0,-999,-99.99,,,-99.99,,2013-09-16 19:42:00,
2013-09-16 12:53:00,60.0,-99.9,29.95,NW,320,2.0,2.0,-999,-99.99,,,-99.99,,2013-09-16 19:53:00,
2013-09-16 13:00:00,60.0,-99.9,29.96,WNW,300,5.0,6.0,-999,-99.99,,,-99.99,,2013-09-16 20:00:00,
2013-09-16 13:22:00,60.0,-99.9,29.96,WNW,300,5.0,6.0,-999,-99.99,,,-99.99,,2013-09-16 20:22:00,
2013-09-16 13:32:00,60.0,-99.9,29.96,WNW,300,5.0,6.0,-999,-99.99,,,-99.99,,2013-09-16 20:32:00,
2013-09-16 13:43:00,60.0,-99.9,29.96,WNW,300,5.0,6.0,-999,-99.99,,,-99.99,,2013-09-16 20:43:00,
2013-09-16 13:52:00,60.0,-99.9,29.96,WNW,300,5.0,6.0,-999,-99.99,,,-99.99,,2013-09-16 20:52:00,
2013-09-16 14:00:00,61.0,-99.9,29.96,NW,320,7.0,8.0,-999,-99.99,,,-99.99,,2013-09-16 21:00:00,
2013-09-16 14:22:00,61.0,-99.9,29.96,NW,320,7.0,8.0,-999,-99.99,,,-99.99,,2013-09-16 21:22:00,
2013-09-16 14:34:00,61.0,-99.9,29.96,NW,320,7.0,8.0,-999,-99.99,,,-99.99,,2013-09-16 21:34:00,
2013-09-16 14:44:00,61.0,-99.9,29.96,NW,320,7.0,8.0,-999,-99.99,,,-99.99,,2013-09-16 21:44:00,
2013-09-16 14:56:00,61.0,-99.9,29.96,NW,320,7.0,8.0,-999,-99.99,,,-99.99,,2013-09-16 21:56:00,
2013-09-16 15:00:00,61.0,-99.9,29.96,NNW,340,14.0,15.0,-999,-99.99,,,-99.99,,2013-09-16 22:00:00,
2013-09-16 15:25:00,61.0,-99.9,29.96,NNW,340,14.0,15.0,-999,-99.99,,,-99.99,,2013-09-16 22:25:00,
2013-09-16 15:33:00,61.0,-99.9,29.96,NNW,340,14.0,15.0,-999,-99.99,,,-99.99,,2013-09-16 22:33:00,
2013-09-16 15:43:00,61.0,-99.9,29.96,NNW,340,14.0,15.0,-999,-99.99,,,-99.99,,2013-09-16 22:43:00,
2013-09-16 15:54:00,61.0,-99.9,29.96,NNW,340,14.0,15.0,-999,-99.99,,,-99.99,,2013-09-16 22:54:00,
2013-09-16 16:00:00,61.0,-99.9,29.96,NNW,330,13.0,14.0,-999,-99.99,,,-99.99,,2013-09-16 23:00:00,
2013-09-16 16:22:00,61.0,-99.9,29.96,NNW,330,13.0,14.0,-999,-99.99,,,-99.99,,2013-09-16 23:22:00,
2013-09-16 16:34:00,61.0,-99.9,29.96,NNW,330,13.0,14.0,-999,-99.99,,,-99.99,,2013-09-16 23:34:00,
2013-09-16 16:43:00,61.0,-99.9,29.96,NNW,330,13.0,14.0,-999,-99.99,,,-99.99,,2013-09-16 23:43:00,
2013-09-16 16:53:00,61.0,-99.9,29.96,NNW,330,13.0,14.0,-999,-99.99,,,-99.99,,2013-09-16 23:53:00,
2013-09-16 17:00:00,60.0,-99.9,29.96,North,350,10.0,10.0,-999,-99.99,,,-99.99,,2013-09-17 00:00:00,
2013-09-16 17:22:00,60.0,-99.9,29.96,North,350,10.0,10.0,-999,-99.99,,,-99.99,,2013-09-17 00:22:00,
2013-09-16 17:32:00,60.0,-99.9,29.96,North,350,10.0,10.0,-999,-99.99,,,-99.99,,2013-09-17 00:32:00,
2013-09-16 17:42:00,60.0,-99.9,29.96,North,350,10.0,10.0,-999,-99.99,,,-99.99,,2013-09-17 00:42:00,
2013-09-16 17:52:00,60.0,-99.9,29.96,North,350,10.0,10.0,-999,-99.99,,,-99.99,,2013-09-17 00:52:00,
2013-09-16 18:00:00,60.0,-99.9,29.96,NNW,340,11.0,13.0,-999,-99.99,,,-99.99,,2013-09-17 01:00:00,
2013-09-16 18:22:00,60.0,-99.9,29.96,NNW,340,11.0,13.0,-999,-99.99,,,-99.99,,2013-09-17 01:22:00,
2013-09-16 18:32:00,60.0,-99.9,29.96,NNW,340,11.0,13.0,-999,-99.99,,,-99.99,,2013-09-17 01:32:00,
2013-09-16 18:42:00,60.0,-99.9,29.96,NNW,340,11.0,13.0,-999,-99.99,,,-99.99,,2013-09-17 01:42:00,
2013-09-16 18:52:00,60.0,-99.9,29.96,NNW,340,11.0,13.0,-999,-99.99,,,-99.99,,2013-09-17 01:52:00,
2013-09-16 19:00:00,60.0,-99.9,29.96,North,350,10.0,10.0,-999,-99.99,,,-99.99,,2013-09-17 02:00:00,
2013-09-16 19:22:00,60.0,-99.9,29.96,North,350,10.0,10.0,-999,-99.99,,,-99.99,,2013-09-17 02:22:00,
2013-09-16 19:32:00,60.0,-99.9,29.96,North,350,10.0,10.0,-999,-99.99,,,-99.99,,2013-09-17 02:32:00,
2013-09-16 19:42:00,60.0,-99.9,29.96,North,350,10.0,10.0,-999,-99.99,,,-99.99,,2013-09-17 02:42:00,
2013-09-16 19:53:00,60.0,-99.9,29.96,North,350,10.0,10.0,-999,-99.99,,,-99.99,,2013-09-17 02:53:00,
2013-09-16 20:00:00,60.0,-99.9,29.95,North,360,6.0,6.0,-999,-99.99,,,-99.99,,2013-09-17 03:00:00,
2013-09-16 20:23:00,60.0,-99.9,29.95,North,360,6.0,6.0,-999,-99.99,,,-99.99,,2013-09-17 03:23:00,
2013-09-16 20:34:00,60.0,-99.9,29.95,North,360,6.0,6.0,-999,-99.99,,,-99.99,,2013-09-17 03:34:00,
2013-09-16 20:45:00,60.0,-99.9,29.95,North,360,6.0,6.0,-999,-99.99,,,-99.99,,2013-09-17 03:45:00,
2013-09-16 20:54:00,60.0,-99.9,29.95,North,360,6.0,6.0,-999,-99.99,,,-99.99,,2013-09-17 03:54:00,
2013-09-16 21:00:00,59.0,-99.9,29.96,NNE,30,5.0,6.0,-999,-99.99,,,-99.99,,2013-09-17 04:00:00,
2013-09-16 21:24:00,59.0,-99.9,29.96,NNE,30,5.0,6.0,-999,-99.99,,,-99.99,,2013-09-17 04:24:00,
2013-09-16 21:34:00,59.0,-99.9,29.96,NNE,30,5.0,6.0,-999,-99.99,,,-99.99,,2013-09-17 04:34:00,
2013-09-16 21:44:00,59.0,-99.9,29.96,NNE,30,5.0,6.0,-999,-99.99,,,-99.99,,2013-09-17 04:44:00,
2013-09-16 21:54:00,59.0,-99.9,29.96,NNE,30,5.0,6.0,-999,-99.99,,,-99.99,,2013-09-17 04:54:00,
2013-09-16 22:00:00,59.0,-99.9,29.96,NE,50,3.0,3.0,-999,-99.99,,,-99.99,,2013-09-17 05:00:00,
2013-09-16 22:23:00,59.0,-99.9,29.96,NE,50,3.0,3.0,-999,-99.99,,,-99.99,,2013-09-17 05:23:00,
2013-09-16 22:34:00,59.0,-99.9,29.96,NE,50,3.0,3.0,-999,-99.99,,,-99.99,,2013-09-17 05:34:00,
2013-09-16 22:42:00,59.0,-99.9,29.96,NE,50,3.0,3.0,-999,-99.99,,,-99.99,,2013-09-17 05:42:00,
2013-09-16 22:52:00,59.0,-99.9,29.96,NE,50,3.0,3.0,-999,-99.99,,,-99.99,,2013-09-17 05:52:00,
2013-09-16 23:00:00,58.0,-99.9,29.95,NE,40,3.0,5.0,-999,-99.99,,,-99.99,,2013-09-17 06:00:00,
2013-09-16 23:22:00,58.0,-99.9,29.95,NE,40,3.0,5.0,-999,-99.99,,,-99.99,,2013-09-17 06:22:00,
2013-09-16 23:32:00,58.0,-99.9,29.95,NE,40,3.0,5.0,-999,-99.99,,,-99.99,,2013-09-17 06:32:00,
2013-09-16 23:42:00,58.0,-99.9,29.95,NE,40,3.0,5.0,-999,-99.99,,,-99.99,,2013-09-17 06:42:00,
2013-09-16 23:52:00,58.0,-99.9,29.95,NE,40,3.0,5.0,-999,-99.99,,,-99.99,,2013-09-17 06:52:00,